Time;durP1;ratioP1;P1;durP2;ratioP2;P2;SDS_P1;SDS_P2;PMS_P1;PMS_P2;Temp;Humidity;BMP_temperature;BMP_pressure;BME280_temperature;BME280_humidity;BME280_pressure;Samples;Min_cycle;Max_cycle;Signal;HPM_P1;HPM_P2
2023/01/10 00:01:35;;;;;;;3.00;2.20;;;3.40;99.90;;;;;;4873435;29;20926;-75
2023/01/10 00:04:02;;;;;;;3.30;2.27;;;3.40;99.90;;;;;;4854969;29;20471;-80
2023/01/10 00:06:28;;;;;;;3.90;2.50;;;3.40;99.90;;;;;;4867083;29;20884;-76
2023/01/10 00:08:56;;;;;;;2.07;1.80;;;3.40;99.90;;;;;;4873207;29;20458;-79
2023/01/10 00:14:10;;;;;;;2.50;2.30;;;3.40;99.90;;;;;;4873141;29;20460;-76
2023/01/10 00:16:38;;;;;;;3.30;2.20;;;3.50;99.90;;;;;;4873699;29;20458;-77
2023/01/10 00:19:05;;;;;;;2.43;2.23;;;3.40;99.90;;;;;;4877319;29;20465;-75
2023/01/10 00:21:32;;;;;;;2.20;2.00;;;3.40;99.90;;;;;;4876187;29;20516;-76
2023/01/10 00:24:07;;;;;;;3.00;1.83;;;3.50;99.90;;;;;;4877559;29;20974;-80
2023/01/10 00:26:34;;;;;;;1.90;1.80;;;3.50;99.90;;;;;;4877485;29;20532;-79
2023/01/10 00:29:01;;;;;;;1.67;1.57;;;3.50;99.90;;;;;;4877356;29;20474;-77
2023/01/10 00:31:29;;;;;;;1.93;1.63;;;3.60;99.90;;;;;;4877002;29;20454;-81
2023/01/10 00:33:55;;;;;;;1.80;1.70;;;3.60;99.90;;;;;;4877156;29;20476;-77
2023/01/10 00:36:22;;;;;;;1.60;1.43;;;3.60;99.90;;;;;;4876590;29;21017;-76
2023/01/10 00:38:49;;;;;;;2.33;2.13;;;3.60;99.90;;;;;;4876630;29;20541;-81
2023/01/10 00:43:56;;;;;;;1.67;1.57;;;3.60;99.90;;;;;;4885591;29;20990;-84
2023/01/10 00:46:23;;;;;;;2.00;1.80;;;3.60;99.90;;;;;;4895858;29;20454;-86
2023/01/10 00:48:52;;;;;;;2.07;1.67;;;3.60;99.90;;;;;;4896056;29;20462;-82
2023/01/10 00:51:19;;;;;;;1.97;1.77;;;3.60;99.90;;;;;;4899159;29;20623;-84
2023/01/10 00:53:46;;;;;;;2.00;1.80;;;3.70;99.90;;;;;;4900397;29;20466;-84
2023/01/10 00:56:12;;;;;;;2.53;2.33;;;3.70;99.90;;;;;;4894112;29;20474;-86
2023/01/10 00:58:39;;;;;;;1.83;1.73;;;3.70;99.90;;;;;;4878845;29;20452;-83
2023/01/10 01:01:06;;;;;;;1.90;1.70;;;3.70;99.90;;;;;;4876308;29;20442;-86
2023/01/10 01:03:32;;;;;;;3.77;1.70;;;3.70;99.90;;;;;;4880906;29;20463;-83
2023/01/10 01:06:04;;;;;;;2.10;1.90;;;3.70;99.90;;;;;;4882137;29;20459;-82
2023/01/10 01:08:31;;;;;;;1.77;1.60;;;3.70;99.90;;;;;;4880580;29;20494;-89
2023/01/10 01:10:58;;;;;;;1.93;1.60;;;3.70;99.90;;;;;;4881157;29;20465;-88
2023/01/10 01:13:25;;;;;;;2.10;1.90;;;3.70;99.90;;;;;;4876019;29;20531;-84
2023/01/10 01:15:52;;;;;;;1.77;1.67;;;3.70;99.90;;;;;;4880731;29;20490;-83
2023/01/10 01:18:21;;;;;;;1.70;1.60;;;3.60;99.90;;;;;;4870091;29;20455;-89
2023/01/10 01:20:52;;;;;;;1.70;1.60;;;3.60;99.90;;;;;;4883483;29;20461;-84
2023/01/10 01:23:20;;;;;;;6.37;1.80;;;3.60;99.90;;;;;;4876747;29;20450;-89
2023/01/10 01:25:50;;;;;;;2.10;1.70;;;3.60;99.90;;;;;;4882759;29;20448;-88
2023/01/10 01:28:17;;;;;;;4.30;1.70;;;3.60;99.90;;;;;;4865967;29;20871;-88
2023/01/10 01:30:43;;;;;;;2.03;1.93;;;3.60;99.90;;;;;;4874834;29;20462;-88
2023/01/10 01:33:10;;;;;;;4.43;3.63;;;3.60;99.90;;;;;;4898396;29;20462;-86
2023/01/10 01:35:37;;;;;;;2.80;1.67;;;3.60;99.90;;;;;;4892522;29;20479;-88
2023/01/10 01:38:04;;;;;;;1.47;1.20;;;3.60;99.90;;;;;;4898453;29;20467;-85
2023/01/10 01:40:32;;;;;;;1.73;1.37;;;3.60;99.90;;;;;;4894217;29;20441;-81
2023/01/10 01:42:58;;;;;;;1.30;1.20;;;3.60;99.90;;;;;;4899296;29;20827;-87
2023/01/10 01:45:36;;;;;;;1.30;1.20;;;3.60;99.90;;;;;;4886588;29;20459;-86
2023/01/10 01:48:28;;;;;;;2.10;1.30;;;3.60;99.90;;;;;;4902945;29;20474;-86
2023/01/10 01:51:04;;;;;;;1.60;1.50;;;3.70;99.90;;;;;;4879810;29;20475;-89
2023/01/10 01:53:34;;;;;;;1.50;1.40;;;3.70;99.90;;;;;;4882624;29;20458;-87
2023/01/10 01:56:08;;;;;;;1.90;1.77;;;3.70;99.90;;;;;;4890091;29;20840;-88
2023/01/10 01:58:40;;;;;;;1.50;1.40;;;3.70;99.90;;;;;;4899723;29;20529;-82
2023/01/10 02:01:08;;;;;;;2.40;1.53;;;3.70;99.90;;;;;;4891307;29;20553;-88
2023/01/10 02:03:35;;;;;;;1.60;1.50;;;3.70;99.90;;;;;;4877630;29;20561;-87
2023/01/10 02:06:02;;;;;;;1.47;1.30;;;3.70;99.90;;;;;;4882252;29;20462;-90
2023/01/10 02:08:29;;;;;;;1.87;1.63;;;3.70;99.90;;;;;;4878053;29;20502;-89
2023/01/10 02:11:07;;;;;;;1.67;1.33;;;3.70;99.90;;;;;;4878795;29;20501;-88
2023/01/10 02:13:37;;;;;;;3.63;1.77;;;3.70;99.90;;;;;;4878177;29;20465;-86
2023/01/10 02:16:04;;;;;;;2.30;1.40;;;3.70;99.90;;;;;;4880249;29;20536;-84
2023/01/10 02:18:31;;;;;;;2.43;1.40;;;3.70;99.90;;;;;;4887520;29;20470;-84
2023/01/10 02:21:14;;;;;;;3.17;1.70;;;3.60;99.90;;;;;;4893197;29;20556;-85
2023/01/10 02:24:16;;;;;;;2.07;1.57;;;3.60;99.90;;;;;;4892711;29;20458;-82
2023/01/10 02:27:09;;;;;;;1.90;1.60;;;3.60;99.90;;;;;;4888401;29;20961;-86
2023/01/10 02:30:19;;;;;;;3.20;1.20;;;3.60;99.90;;;;;;4893677;29;20456;-84
2023/01/10 02:32:50;;;;;;;2.00;1.80;;;3.60;99.90;;;;;;4897568;29;20502;-81
2023/01/10 02:35:28;;;;;;;2.70;2.17;;;3.60;99.90;;;;;;4891691;29;20468;-86
2023/01/10 02:38:04;;;;;;;2.03;1.40;;;3.60;99.90;;;;;;4877705;29;20451;-81
2023/01/10 02:40:38;;;;;;;2.77;1.97;;;3.60;99.90;;;;;;4877284;29;20450;-81
2023/01/10 02:43:09;;;;;;;1.57;1.47;;;3.50;99.90;;;;;;4876136;29;20462;-86
2023/01/10 02:45:41;;;;;;;1.90;1.40;;;3.60;99.90;;;;;;4874193;29;20540;-82
2023/01/10 02:48:09;;;;;;;1.77;1.37;;;3.60;99.90;;;;;;4878550;29;20961;-82
2023/01/10 02:50:52;;;;;;;2.00;1.60;;;3.60;99.90;;;;;;4877473;29;20715;-84
2023/01/10 02:53:23;;;;;;;1.50;1.40;;;3.50;99.90;;;;;;4897167;29;20473;-85
2023/01/10 02:56:22;;;;;;;2.90;2.70;;;3.50;99.90;;;;;;4897087;29;20473;-84
2023/01/10 02:59:26;;;;;;;2.17;1.47;;;3.50;99.90;;;;;;4896729;29;20462;-82
2023/01/10 03:02:01;;;;;;;3.10;1.50;;;3.50;99.90;;;;;;4895720;29;20552;-85
2023/01/10 03:04:39;;;;;;;1.83;1.53;;;3.50;99.90;;;;;;4891644;29;20536;-83
2023/01/10 03:07:17;;;;;;;2.73;1.20;;;3.40;99.90;;;;;;4895578;29;20445;-82
2023/01/10 03:09:52;;;;;;;2.20;1.50;;;3.40;99.90;;;;;;4900764;29;20498;-81
2023/01/10 03:12:25;;;;;;;1.60;1.50;;;3.40;99.90;;;;;;4901448;29;20454;-82
2023/01/10 03:14:54;;;;;;;1.60;1.30;;;3.40;99.90;;;;;;4901939;29;20518;-82
2023/01/10 03:17:22;;;;;;;2.17;1.63;;;3.40;99.90;;;;;;4901025;29;20513;-85
2023/01/10 03:19:53;;;;;;;2.37;1.90;;;3.30;99.90;;;;;;4902400;29;20510;-83
2023/01/10 03:22:20;;;;;;;1.73;1.63;;;3.40;99.90;;;;;;4899890;29;20507;-85
2023/01/10 03:24:49;;;;;;;2.00;1.67;;;3.40;99.90;;;;;;4897570;29;20486;-81
2023/01/10 03:27:24;;;;;;;1.70;1.50;;;3.40;99.90;;;;;;4899944;29;20465;-82
2023/01/10 03:29:55;;;;;;;2.33;1.40;;;3.40;99.90;;;;;;4901680;29;20462;-82
2023/01/10 03:32:26;;;;;;;2.30;1.30;;;3.40;99.90;;;;;;4897355;29;20471;-84
2023/01/10 03:34:56;;;;;;;1.60;1.50;;;3.40;99.90;;;;;;4896618;29;20540;-85
2023/01/10 03:37:30;;;;;;;2.07;1.60;;;3.40;99.90;;;;;;4899415;29;20490;-85
2023/01/10 03:40:07;;;;;;;1.53;1.43;;;3.40;99.90;;;;;;4896920;29;20478;-84
2023/01/10 03:45:28;;;;;;;1.47;1.37;;;3.50;99.90;;;;;;4897314;29;20483;-84
2023/01/10 03:47:57;;;;;;;1.50;1.40;;;3.50;99.90;;;;;;4898318;29;20497;-83
2023/01/10 03:50:27;;;;;;;1.53;1.20;;;3.50;99.90;;;;;;4897888;29;20474;-84
2023/01/10 03:52:54;;;;;;;1.60;1.50;;;3.60;99.90;;;;;;4896629;29;20525;-84
2023/01/10 03:55:24;;;;;;;2.63;1.40;;;3.60;99.90;;;;;;4894212;29;20518;-83
2023/01/10 03:57:50;;;;;;;1.90;1.67;;;3.60;99.90;;;;;;4885156;29;20482;-86
2023/01/10 04:00:18;;;;;;;3.93;1.60;;;3.60;99.90;;;;;;4884294;29;20515;-79
2023/01/10 04:02:45;;;;;;;2.13;1.80;;;3.60;99.90;;;;;;4895422;29;20994;-81
2023/01/10 04:05:12;;;;;;;1.60;1.50;;;3.60;99.90;;;;;;4897241;29;20454;-82
2023/01/10 04:07:40;;;;;;;1.50;1.40;;;3.60;99.90;;;;;;4894488;29;20552;-85
2023/01/10 04:10:08;;;;;;;1.97;1.57;;;3.60;99.90;;;;;;4888226;29;20537;-89
2023/01/10 04:12:35;;;;;;;1.60;1.50;;;3.70;99.90;;;;;;4887877;29;20449;-85
2023/01/10 04:15:02;;;;;;;2.10;1.90;;;3.60;99.90;;;;;;4890116;29;20458;-90
2023/01/10 04:17:29;;;;;;;1.70;1.50;;;3.60;99.90;;;;;;4886845;29;20502;-85
2023/01/10 04:19:55;;;;;;;1.97;1.80;;;3.70;99.90;;;;;;4899408;29;20447;-85
2023/01/10 04:22:22;;;;;;;2.40;2.20;;;3.60;99.90;;;;;;4901619;29;20462;-84
2023/01/10 04:24:51;;;;;;;2.27;1.47;;;3.70;99.90;;;;;;4897829;29;20528;-86
2023/01/10 04:27:18;;;;;;;2.23;2.03;;;3.70;99.90;;;;;;4878225;29;20548;-89
2023/01/10 04:29:45;;;;;;;1.90;1.80;;;3.70;99.90;;;;;;4895875;29;20494;-82
2023/01/10 04:32:11;;;;;;;5.00;1.90;;;3.60;99.90;;;;;;4898012;29;20542;-83
2023/01/10 04:34:38;;;;;;;2.33;2.00;;;3.60;99.90;;;;;;4897799;29;20451;-89
2023/01/10 04:37:05;;;;;;;2.03;1.83;;;3.60;99.90;;;;;;4891145;29;20497;-85
2023/01/10 04:39:32;;;;;;;4.13;2.13;;;3.60;99.90;;;;;;4895101;29;20514;-85
2023/01/10 04:42:00;;;;;;;2.20;2.07;;;3.60;99.90;;;;;;4895248;29;20462;-88
2023/01/10 04:44:27;;;;;;;3.47;2.07;;;3.60;99.90;;;;;;4898683;29;20465;-86
2023/01/10 04:46:54;;;;;;;2.57;2.10;;;3.60;99.90;;;;;;4891207;29;20511;-86
2023/01/10 04:49:20;;;;;;;2.43;2.17;;;3.60;99.90;;;;;;4879028;29;20597;-87
2023/01/10 04:51:47;;;;;;;4.23;2.70;;;3.60;99.90;;;;;;4877267;29;20470;-87
2023/01/10 04:54:14;;;;;;;2.40;2.20;;;3.50;99.90;;;;;;4882385;29;20458;-82
2023/01/10 04:56:41;;;;;;;2.27;1.97;;;3.50;99.90;;;;;;4881434;29;20444;-83
2023/01/10 04:59:10;;;;;;;2.67;1.90;;;3.50;99.90;;;;;;4880023;29;20461;-85
2023/01/10 05:01:37;;;;;;;2.50;2.23;;;3.40;99.90;;;;;;4891228;29;20467;-88
2023/01/10 05:04:06;;;;;;;4.43;2.57;;;3.40;99.90;;;;;;4901524;29;20521;-83
2023/01/10 05:06:33;;;;;;;2.33;1.83;;;3.30;99.90;;;;;;4905373;29;20477;-83
2023/01/10 05:09:00;;;;;;;2.43;2.23;;;3.30;99.90;;;;;;4905555;29;20564;-82
2023/01/10 05:11:26;;;;;;;3.90;3.40;;;3.30;99.90;;;;;;4901077;29;20550;-82
2023/01/10 05:13:53;;;;;;;2.30;2.10;;;3.30;99.90;;;;;;4889671;29;20525;-85
2023/01/10 05:16:21;;;;;;;2.43;1.77;;;3.30;99.90;;;;;;4887351;29;20458;-89
2023/01/10 05:21:18;;;;;;;2.30;2.10;;;3.40;99.90;;;;;;4895086;29;20582;-86
2023/01/10 05:23:45;;;;;;;2.80;2.60;;;3.50;99.90;;;;;;4900202;29;21003;-87
2023/01/10 05:26:14;;;;;;;2.40;2.20;;;5.10;99.90;;;;;;4900550;29;20914;-81
2023/01/10 05:28:41;;;;;;;2.90;2.33;;;3.30;99.90;;;;;;4896245;29;20512;-80
2023/01/10 05:31:09;;;;;;;2.23;1.50;;;3.30;99.90;;;;;;4890140;29;20480;-79
2023/01/10 05:33:38;;;;;;;2.90;2.70;;;3.40;99.90;;;;;;4878250;29;20466;-77
2023/01/10 05:36:06;;;;;;;3.13;2.90;;;3.30;99.90;;;;;;4890974;29;20466;-85
2023/01/10 05:38:33;;;;;;;4.33;2.60;;;3.30;99.90;;;;;;4892190;29;20466;-81
2023/01/10 05:41:00;;;;;;;2.30;2.10;;;3.30;99.90;;;;;;4887590;29;20484;-82
2023/01/10 05:43:27;;;;;;;2.00;1.77;;;3.40;99.90;;;;;;4893725;29;20453;-83
2023/01/10 05:45:54;;;;;;;2.33;2.13;;;3.40;99.90;;;;;;4898665;29;20528;-84
2023/01/10 05:48:21;;;;;;;2.37;1.90;;;3.40;99.90;;;;;;4888945;29;20501;-80
2023/01/10 05:50:51;;;;;;;1.80;1.50;;;3.40;99.90;;;;;;4879253;29;20466;-79
2023/01/10 05:53:18;;;;;;;1.63;1.53;;;3.40;99.90;;;;;;4880468;29;20457;-81
2023/01/10 05:55:52;;;;;;;1.90;1.70;;;3.40;99.90;;;;;;4879568;29;20456;-79
2023/01/10 05:58:18;;;;;;;2.00;1.90;;;3.40;99.90;;;;;;4884738;29;20502;-82
2023/01/10 06:00:45;;;;;;;2.17;1.97;;;3.40;99.90;;;;;;4890422;29;20958;-82
2023/01/10 06:03:12;;;;;;;2.07;1.80;;;3.30;99.90;;;;;;4888918;29;20455;-77
2023/01/10 06:05:39;;;;;;;2.00;1.90;;;3.40;99.90;;;;;;4882693;29;20451;-81
2023/01/10 06:10:40;;;;;;;2.43;1.70;;;3.40;99.90;;;;;;4895636;29;20499;-80
2023/01/10 06:13:08;;;;;;;1.60;1.50;;;3.40;99.90;;;;;;4891537;29;20446;-79
2023/01/10 06:15:36;;;;;;;2.00;1.80;;;3.40;99.90;;;;;;4883025;29;20450;-77
2023/01/10 06:18:03;;;;;;;2.20;2.00;;;3.40;99.90;;;;;;4887929;29;20532;-78
2023/01/10 06:20:30;;;;;;;1.77;1.67;;;3.50;99.90;;;;;;4885597;29;20449;-77
2023/01/10 06:22:57;;;;;;;2.70;2.10;;;3.50;99.90;;;;;;4889132;29;20466;-77
2023/01/10 06:25:24;;;;;;;1.73;1.40;;;3.50;99.90;;;;;;4886015;29;20437;-77
2023/01/10 06:27:52;;;;;;;2.40;1.70;;;3.50;99.90;;;;;;4884652;29;20555;-76
2023/01/10 06:30:19;;;;;;;2.60;1.43;;;3.50;99.90;;;;;;4881874;29;20511;-78
2023/01/10 06:32:46;;;;;;;2.57;1.90;;;3.50;99.90;;;;;;4878773;29;20456;-78
2023/01/10 06:35:13;;;;;;;3.33;1.83;;;3.50;99.90;;;;;;4885218;29;20454;-78
2023/01/10 06:37:39;;;;;;;2.13;1.93;;;3.50;99.90;;;;;;4877044;29;20971;-78
2023/01/10 06:40:07;;;;;;;1.77;1.67;;;3.50;99.90;;;;;;4881517;29;20578;-78
2023/01/10 06:42:34;;;;;;;1.73;1.63;;;3.50;99.90;;;;;;4876990;29;20989;-80
2023/01/10 06:45:03;;;;;;;1.50;1.40;;;3.50;99.90;;;;;;4886345;29;20461;-88
2023/01/10 06:47:30;;;;;;;1.53;1.43;;;3.50;99.90;;;;;;4883023;29;20458;-78
2023/01/10 06:49:57;;;;;;;1.80;1.60;;;3.50;99.90;;;;;;4884264;29;20497;-79
2023/01/10 06:52:23;;;;;;;2.10;1.70;;;3.50;99.90;;;;;;4878026;29;20541;-79
2023/01/10 06:54:51;;;;;;;2.00;1.80;;;3.50;99.90;;;;;;4877552;29;20474;-80
2023/01/10 06:57:18;;;;;;;2.03;1.50;;;3.50;99.90;;;;;;4892430;29;20465;-88
2023/01/10 07:02:22;;;;;;;1.70;1.60;;;3.50;99.90;;;;;;5442960;23;20519;-89
2023/01/10 07:04:49;;;;;;;1.90;1.80;;;3.60;99.90;;;;;;5120680;23;20502;-85
2023/01/10 07:07:16;;;;;;;3.17;1.50;;;3.50;99.90;;;;;;4954879;29;20519;-82
2023/01/10 07:09:43;;;;;;;2.13;1.70;;;3.50;99.90;;;;;;4956960;29;20503;-80
2023/01/10 07:12:10;;;;;;;2.30;1.73;;;3.50;99.90;;;;;;4954691;28;20467;-83
2023/01/10 07:14:36;;;;;;;1.87;1.67;;;3.50;99.90;;;;;;4957178;29;20444;-82
2023/01/10 07:17:03;;;;;;;2.63;2.00;;;3.50;99.90;;;;;;4956133;29;20500;-83
2023/01/10 07:19:31;;;;;;;1.77;1.67;;;3.50;99.90;;;;;;4957900;28;20523;-81
2023/01/10 07:21:58;;;;;;;1.97;1.70;;;3.50;99.90;;;;;;4954872;29;20515;-85
2023/01/10 07:24:25;;;;;;;4.30;1.90;;;3.50;99.90;;;;;;4942382;29;20548;-85
2023/01/10 07:26:55;;;;;;;2.20;2.00;;;3.50;99.90;;;;;;4950328;29;20443;-80
2023/01/10 07:29:22;;;;;;;4.07;2.40;;;3.50;99.90;;;;;;4953794;29;20494;-87
2023/01/10 07:31:48;;;;;;;2.47;2.00;;;3.50;99.90;;;;;;4945242;29;20523;-87
2023/01/10 07:34:15;;;;;;;3.00;2.70;;;3.50;99.90;;;;;;4942464;29;20488;-81
2023/01/10 07:36:43;;;;;;;3.00;2.50;;;3.50;99.90;;;;;;4917546;29;20425;-79
2023/01/10 07:39:10;;;;;;;2.50;2.30;;;3.50;99.90;;;;;;4918060;29;20457;-81
2023/01/10 07:41:37;;;;;;;5.03;2.50;;;3.50;99.90;;;;;;4930047;29;20465;-82
2023/01/10 07:44:04;;;;;;;3.00;2.70;;;3.50;99.90;;;;;;4934722;29;20495;-88
2023/01/10 07:46:31;;;;;;;3.20;2.90;;;3.50;99.90;;;;;;4939594;29;20433;-81
2023/01/10 07:48:58;;;;;;;3.13;2.33;;;3.40;99.90;;;;;;4920893;29;20488;-77
2023/01/10 07:51:29;;;;;;;4.23;3.17;;;3.40;99.90;;;;;;4936936;28;20451;-82
2023/01/10 07:56:28;;;;;;;3.87;3.33;;;3.40;99.90;;;;;;4921204;29;20521;-83
2023/01/10 07:58:55;;;;;;;6.60;3.33;;;4.00;99.90;;;;;;4922408;29;20446;-81
2023/01/10 08:01:23;;;;;;;7.73;5.30;;;3.40;99.90;;;;;;4908405;29;20469;-80
2023/01/10 08:03:50;;;;;;;4.57;3.10;;;3.40;99.90;;;;;;4894444;29;20454;-78
2023/01/10 08:06:17;;;;;;;3.20;2.90;;;3.50;99.90;;;;;;4892711;29;20488;-77
2023/01/10 08:08:43;;;;;;;4.13;3.60;;;3.40;99.90;;;;;;4892832;29;20491;-78
2023/01/10 08:11:10;;;;;;;3.57;3.10;;;3.50;99.90;;;;;;4893670;29;20456;-77
2023/01/10 08:13:38;;;;;;;4.40;4.00;;;3.40;99.90;;;;;;4893703;29;20456;-78
2023/01/10 08:16:07;;;;;;;7.10;3.23;;;3.40;99.90;;;;;;4893279;29;20461;-79
2023/01/10 08:18:34;;;;;;;4.00;3.70;;;3.30;99.90;;;;;;4892001;29;20482;-78
2023/01/10 08:21:01;;;;;;;10.67;4.37;;;3.20;99.90;;;;;;4892970;29;20844;-78
2023/01/10 08:23:28;;;;;;;5.90;3.77;;;3.30;99.90;;;;;;4893425;29;20454;-78
2023/01/10 08:25:57;;;;;;;5.93;3.60;;;3.30;99.90;;;;;;4892820;29;20540;-78
2023/01/10 08:28:24;;;;;;;3.07;2.60;;;3.30;99.90;;;;;;4893078;29;20809;-78
2023/01/10 08:30:54;;;;;;;7.03;3.77;;;3.30;99.90;;;;;;4894811;29;20504;-81
2023/01/10 08:33:21;;;;;;;5.67;4.07;;;3.30;99.90;;;;;;4895562;29;20465;-78
2023/01/10 08:35:48;;;;;;;4.00;2.90;;;3.20;99.90;;;;;;4893880;29;20470;-80
2023/01/10 08:38:15;;;;;;;6.73;2.90;;;3.30;99.90;;;;;;4878431;29;20839;-80
2023/01/10 08:40:42;;;;;;;8.83;2.97;;;3.30;99.90;;;;;;4881791;29;20514;-81
2023/01/10 08:43:12;;;;;;;6.73;3.00;;;3.30;99.90;;;;;;4880190;29;20470;-79
2023/01/10 08:45:39;;;;;;;5.90;2.83;;;3.30;99.90;;;;;;4891569;29;20458;-80
2023/01/10 08:48:09;;;;;;;4.57;2.90;;;3.30;99.90;;;;;;4899075;29;20466;-83
2023/01/10 08:50:35;;;;;;;4.03;2.87;;;3.30;99.90;;;;;;4898809;29;20497;-80
2023/01/10 08:53:02;;;;;;;4.13;2.33;;;3.30;99.90;;;;;;4898242;29;20474;-80
2023/01/10 08:55:30;;;;;;;3.20;2.23;;;3.30;99.90;;;;;;4896864;29;20513;-80
2023/01/10 08:57:59;;;;;;;3.87;2.70;;;3.30;99.90;;;;;;4897723;29;20445;-81
2023/01/10 09:00:26;;;;;;;5.83;2.30;;;3.30;99.90;;;;;;4898657;29;20460;-80
2023/01/10 09:02:53;;;;;;;4.00;2.20;;;3.40;99.90;;;;;;4898237;29;20548;-80
2023/01/10 09:05:21;;;;;;;2.57;2.37;;;3.40;99.90;;;;;;4896596;29;20460;-80
2023/01/10 09:07:48;;;;;;;2.50;2.30;;;3.20;99.90;;;;;;4897619;29;20541;-81
2023/01/10 09:10:14;;;;;;;5.60;2.57;;;3.20;99.90;;;;;;4895696;29;20503;-78
2023/01/10 09:12:58;;;;;;;4.07;2.83;;;3.00;99.90;;;;;;4897632;29;20468;-79
2023/01/10 09:15:27;;;;;;;3.07;2.50;;;3.00;99.90;;;;;;4896055;29;20835;-79
2023/01/10 09:17:55;;;;;;;2.37;1.90;;;2.70;99.90;;;;;;4895341;29;20460;-78
2023/01/10 09:20:23;;;;;;;3.50;2.10;;;2.70;99.90;;;;;;4895894;29;20937;-78
2023/01/10 09:22:50;;;;;;;3.57;2.40;;;2.70;99.90;;;;;;4896189;29;20828;-79
2023/01/10 09:25:17;;;;;;;6.40;3.03;;;2.70;99.90;;;;;;4895628;29;20461;-80
2023/01/10 09:27:44;;;;;;;3.43;3.13;;;2.80;99.90;;;;;;4894818;29;20972;-79
2023/01/10 09:30:12;;;;;;;8.63;2.10;;;2.70;99.90;;;;;;4896188;29;20600;-79
2023/01/10 09:32:39;;;;;;;9.40;3.70;;;2.80;99.90;;;;;;4895653;29;20548;-79
2023/01/10 09:35:06;;;;;;;2.63;2.30;;;2.80;99.90;;;;;;4896468;29;20969;-80
2023/01/10 09:37:34;;;;;;;4.03;3.73;;;2.90;99.90;;;;;;4896948;29;20460;-79
2023/01/10 09:40:01;;;;;;;6.67;2.87;;;3.10;99.90;;;;;;4897624;29;20456;-80
2023/01/10 09:42:46;;;;;;;4.23;2.37;;;3.10;99.90;;;;;;4895546;29;20949;-79
2023/01/10 09:45:17;;;;;;;6.20;3.30;;;3.20;99.90;;;;;;4896775;29;20548;-79
2023/01/10 09:47:53;;;;;;;4.97;2.93;;;3.30;99.90;;;;;;4896414;29;20533;-80
2023/01/10 09:50:27;;;;;;;3.77;3.40;;;3.40;99.90;;;;;;4896082;29;20541;-79
2023/01/10 09:53:02;;;;;;;2.93;2.57;;;3.50;99.90;;;;;;4895485;29;21020;-81
2023/01/10 09:55:32;;;;;;;8.70;3.20;;;3.70;99.90;;;;;;4894929;29;21011;-80
2023/01/10 09:58:01;;;;;;;6.17;3.13;;;3.80;99.90;;;;;;4893871;29;20469;-81
2023/01/10 10:00:38;;;;;;;4.77;3.83;;;4.00;99.90;;;;;;4894267;29;20460;-80
2023/01/10 10:03:14;;;;;;;7.17;2.70;;;4.10;99.90;;;;;;4895009;29;20449;-79
2023/01/10 10:05:41;;;;;;;4.37;2.57;;;4.40;99.90;;;;;;4894997;29;20457;-80
2023/01/10 10:08:16;;;;;;;5.40;2.40;;;4.50;99.90;;;;;;4894298;29;20463;-80
2023/01/10 10:10:51;;;;;;;4.50;2.53;;;4.50;99.90;;;;;;4894660;29;20511;-81
2023/01/10 10:13:27;;;;;;;2.27;2.07;;;4.50;99.90;;;;;;4894553;29;20458;-82
2023/01/10 10:16:04;;;;;;;7.53;2.27;;;4.40;99.90;;;;;;4893369;29;20969;-79
2023/01/10 10:18:40;;;;;;;8.10;2.53;;;4.20;99.90;;;;;;4895485;29;21106;-81
2023/01/10 10:21:16;;;;;;;5.23;2.57;;;4.20;99.90;;;;;;4896345;29;20453;-79
2023/01/10 10:24:03;;;;;;;2.73;2.00;;;4.20;99.90;;;;;;4897384;29;20924;-79
2023/01/10 10:26:34;;;;;;;2.73;2.00;;;4.20;99.90;;;;;;4898633;29;20590;-80
2023/01/10 10:29:21;;;;;;;3.67;2.10;;;4.10;99.90;;;;;;4896546;29;20496;-79
2023/01/10 10:32:17;;;;;;;13.90;2.07;;;4.20;99.90;;;;;;4895176;29;20784;-85
2023/01/10 10:34:48;;;;;;;2.87;2.10;;;4.30;99.90;;;;;;4882585;29;20551;-79
2023/01/10 10:37:20;;;;;;;6.93;2.50;;;4.10;99.90;;;;;;4896671;29;20799;-80
2023/01/10 10:39:52;;;;;;;3.43;1.70;;;4.30;99.90;;;;;;4895928;29;20743;-80
2023/01/10 10:42:19;;;;;;;3.00;1.60;;;4.30;99.90;;;;;;4893678;29;20449;-82
2023/01/10 10:44:52;;;;;;;3.20;2.03;;;4.40;99.90;;;;;;4894352;29;20528;-78
2023/01/10 10:47:21;;;;;;;1.90;1.70;;;4.30;99.90;;;;;;4894855;29;20442;-79
2023/01/10 10:49:53;;;;;;;6.50;2.20;;;4.40;99.90;;;;;;4895226;29;20584;-80
2023/01/10 10:52:25;;;;;;;3.70;1.80;;;4.50;99.90;;;;;;4895567;29;20457;-80
2023/01/10 10:54:54;;;;;;;6.40;2.33;;;4.50;99.90;;;;;;4894300;29;20849;-79
2023/01/10 10:57:24;;;;;;;13.83;2.17;;;4.50;99.90;;;;;;4894829;29;20444;-82
2023/01/10 10:59:51;;;;;;;3.63;1.90;;;4.60;99.90;;;;;;4893940;29;20543;-79
2023/01/10 11:02:24;;;;;;;5.27;2.00;;;4.70;99.90;;;;;;4894422;29;20454;-78
2023/01/10 11:04:53;;;;;;;3.93;1.40;;;4.70;99.90;;;;;;4895386;29;20505;-79
2023/01/10 11:07:20;;;;;;;4.83;1.50;;;4.70;99.90;;;;;;4893674;29;20453;-82
2023/01/10 11:09:50;;;;;;;3.90;2.67;;;4.70;99.90;;;;;;4906472;29;20561;-79
2023/01/10 11:12:21;;;;;;;5.20;2.13;;;4.70;99.90;;;;;;4906006;29;20486;-84
2023/01/10 11:14:50;;;;;;;6.03;2.90;;;4.60;99.90;;;;;;4904536;29;20445;-84
2023/01/10 11:17:20;;;;;;;3.90;1.80;;;4.60;99.90;;;;;;4904280;29;20442;-80
2023/01/10 11:19:56;;;;;;;3.93;1.60;;;4.50;99.90;;;;;;4902958;29;20476;-79
2023/01/10 11:22:24;;;;;;;5.57;1.47;;;4.50;99.90;;;;;;4905774;29;20931;-80
2023/01/10 11:24:54;;;;;;;3.00;1.97;;;4.50;99.90;;;;;;4897924;29;20461;-81
2023/01/10 11:27:25;;;;;;;3.00;1.53;;;4.50;99.90;;;;;;4901977;29;20465;-82
2023/01/10 11:29:56;;;;;;;3.13;1.20;;;4.60;99.90;;;;;;4900443;29;20464;-84
2023/01/10 11:32:32;;;;;;;2.60;1.30;;;4.50;99.90;;;;;;4902610;29;20490;-80
2023/01/10 11:35:01;;;;;;;3.77;1.53;;;4.40;99.90;;;;;;4902499;29;20488;-80
2023/01/10 11:37:31;;;;;;;4.90;1.43;;;4.40;99.90;;;;;;4902093;29;21036;-81
2023/01/10 11:40:22;;;;;;;2.50;1.83;;;4.40;99.90;;;;;;4900859;29;20565;-79
2023/01/10 11:42:51;;;;;;;3.47;2.00;;;4.40;99.90;;;;;;4896187;29;20462;-84
2023/01/10 11:45:39;;;;;;;3.83;2.10;;;4.50;99.90;;;;;;4894780;29;20478;-84
2023/01/10 11:48:16;;;;;;;2.90;2.03;;;4.30;99.90;;;;;;4891677;29;20485;-82
2023/01/10 11:50:49;;;;;;;3.77;2.20;;;4.40;99.90;;;;;;4893815;29;20580;-82
2023/01/10 11:53:33;;;;;;;3.27;1.70;;;4.30;99.90;;;;;;4895225;29;20473;-78
2023/01/10 11:56:01;;;;;;;2.20;1.80;;;4.40;99.90;;;;;;4896933;29;20532;-79
2023/01/10 11:58:32;;;;;;;4.73;1.70;;;4.40;99.90;;;;;;4898175;29;20834;-84
2023/01/10 12:00:59;;;;;;;2.30;1.40;;;4.50;99.90;;;;;;4897594;29;20798;-81
2023/01/10 12:03:29;;;;;;;2.80;1.70;;;4.50;99.90;;;;;;4898524;29;20458;-80
2023/01/10 12:05:59;;;;;;;5.73;1.90;;;4.50;99.90;;;;;;4899513;29;20525;-84
2023/01/10 12:08:29;;;;;;;3.13;2.00;;;4.50;99.90;;;;;;4898083;29;20457;-81
2023/01/10 12:11:01;;;;;;;4.23;1.57;;;4.50;99.90;;;;;;4878334;29;20854;-80
2023/01/10 12:13:42;;;;;;;4.27;1.87;;;4.70;99.90;;;;;;4877160;29;20555;-81
2023/01/10 12:16:17;;;;;;;4.43;1.60;;;5.00;99.90;;;;;;4879227;29;20445;-82
2023/01/10 12:18:44;;;;;;;3.13;1.80;;;5.00;99.90;;;;;;4882095;29;20444;-82
2023/01/10 12:21:15;;;;;;;2.80;1.40;;;4.90;99.90;;;;;;4884429;29;20978;-82
2023/01/10 12:23:44;;;;;;;2.47;1.60;;;4.80;99.90;;;;;;4884512;29;20462;-84
2023/01/10 12:26:13;;;;;;;4.40;1.67;;;4.90;99.90;;;;;;4890043;29;20561;-88
2023/01/10 12:28:45;;;;;;;3.90;2.17;;;4.90;99.90;;;;;;4904981;29;20445;-83
2023/01/10 12:31:14;;;;;;;5.80;1.80;;;5.20;99.90;;;;;;4904431;29;20580;-81
2023/01/10 12:33:46;;;;;;;6.60;1.80;;;5.20;99.90;;;;;;4910184;29;20461;-83
2023/01/10 12:36:30;;;;;;;2.90;1.53;;;5.20;99.90;;;;;;4896401;29;20585;-93
2023/01/10 12:49:27;;;;;;;5.23;1.40;;;4.60;99.90;;;;;;4933209;23;20480;-88
2023/01/10 12:51:58;;;;;;;1.70;1.60;;;4.80;99.90;;;;;;4994695;23;20492;-78
2023/01/10 12:54:29;;;;;;;1.50;1.20;;;4.90;99.90;;;;;;4902236;29;20914;-77
2023/01/10 12:56:58;;;;;;;2.70;1.90;;;4.80;99.90;;;;;;4895488;29;20813;-78
2023/01/10 12:59:34;;;;;;;2.23;1.60;;;4.90;99.90;;;;;;4895863;29;20456;-78
2023/01/10 13:02:02;;;;;;;3.60;1.50;;;4.80;99.90;;;;;;4895183;29;20962;-79
2023/01/10 13:04:34;;;;;;;2.00;1.90;;;4.90;99.90;;;;;;4895420;29;20529;-78
2023/01/10 13:07:01;;;;;;;1.37;1.20;;;4.90;99.90;;;;;;4895846;29;20457;-78
2023/01/10 13:09:30;;;;;;;10.63;1.60;;;4.90;99.90;;;;;;4895535;29;20957;-77
2023/01/10 13:12:02;;;;;;;4.17;1.50;;;5.10;99.90;;;;;;4896016;29;20499;-81
2023/01/10 13:14:32;;;;;;;3.13;1.70;;;5.30;99.90;;;;;;4899108;29;20447;-87
2023/01/10 13:27:23;;;;;;;2.40;1.47;;;5.60;99.90;;;;;;5972350;23;20418;-84
2023/01/10 13:29:51;;;;;;;1.60;1.40;;;5.40;99.90;;;;;;5690328;23;20482;-90
2023/01/10 13:45:26;;;;;;;5.53;1.70;;;5.40;99.90;;;;;;4910851;29;20588;-79
2023/01/10 13:48:04;;;;;;;5.00;1.60;;;5.10;99.90;;;;;;4885281;29;20481;-80
2023/01/10 13:50:50;;;;;;;2.20;1.63;;;5.10;99.90;;;;;;4863816;29;20554;-82
2023/01/10 13:53:51;;;;;;;2.20;1.63;;;5.10;99.90;;;;;;4866755;29;20555;-80
2023/01/10 13:56:39;;;;;;;3.23;1.50;;;5.10;99.90;;;;;;4865651;29;20919;-79
2023/01/10 14:04:50;;;;;;;5.00;1.90;;;4.90;99.90;;;;;;4862763;29;20929;-80
2023/01/10 14:07:24;;;;;;;3.30;1.70;;;4.90;99.90;;;;;;4862855;29;20602;-80
2023/01/10 14:09:52;;;;;;;1.77;1.57;;;4.90;99.90;;;;;;4863765;29;20473;-79
2023/01/10 14:12:24;;;;;;;3.00;1.60;;;4.90;99.90;;;;;;4861729;29;20531;-80